Time;durP1;ratioP1;P1;durP2;ratioP2;P2;SDS_P1;SDS_P2;PMS_P1;PMS_P2;Temp;Humidity;BMP_temperature;BMP_pressure;BME280_temperature;BME280_humidity;BME280_pressure;Samples;Min_cycle;Max_cycle;Signal;HPM_P1;HPM_P2
2021/05/31 00:00:11;;;;;;;7.83;3.50;;;;;;;13.84;54.93;100767.03;1635752;85;21396;-78
2021/05/31 00:02:38;;;;;;;6.53;3.30;;;;;;;13.80;55.01;100763.06;1643574;85;21098;-82
2021/05/31 00:05:04;;;;;;;;;;;;;;;13.86;54.87;100764.22;1637003;85;21030;-82
2021/05/31 00:07:32;;;;;;;6.33;3.10;;;;;;;13.82;54.85;100761.06;1639911;85;20687;-79
2021/05/31 00:09:57;;;;;;;;;;;;;;;13.85;54.71;100759.41;1639858;85;21134;-80
2021/05/31 00:12:25;;;;;;;7.20;3.50;;;;;;;13.71;55.28;100761.38;1639087;85;21017;-79
2021/05/31 00:14:52;;;;;;;11.33;3.75;;;;;;;13.69;55.36;100756.70;1624993;86;21059;-79
2021/05/31 00:17:23;;;;;;;7.65;3.55;;;;;;;13.65;55.43;100754.37;1638552;86;21710;-84
2021/05/31 00:19:52;;;;;;;7.65;3.87;;;;;;;13.72;55.18;100747.09;1628730;86;21138;-80
2021/05/31 00:22:23;;;;;;;6.37;3.80;;;;;;;13.69;55.24;100756.23;1641485;85;21615;-79
2021/05/31 00:24:51;;;;;;;8.30;4.30;;;;;;;13.61;55.59;100759.69;1634140;86;21199;-79
2021/05/31 00:27:19;;;;;;;9.13;4.42;;;;;;;13.49;55.91;100760.97;1641652;86;21070;-80
2021/05/31 00:29:46;;;;;;;11.18;4.30;;;;;;;13.44;56.15;100757.97;1636041;85;21023;-84
2021/05/31 00:32:13;;;;;;;7.97;4.03;;;;;;;13.49;55.94;100755.66;1639611;86;21158;-86
2021/05/31 00:34:39;;;;;;;10.10;4.17;;;;;;;13.51;55.87;100749.69;1646760;85;21202;-77
2021/05/31 00:37:07;;;;;;;9.00;4.20;;;;;;;13.48;56.02;100756.64;1631507;86;21443;-78
2021/05/31 00:39:34;;;;;;;;;;;;;;;13.51;55.91;100753.67;1625707;86;21215;-81
2021/05/31 00:42:01;;;;;;;7.75;3.60;;;;;;;13.43;55.88;100735.08;1659993;85;20581;-80
2021/05/31 00:44:27;;;;;;;;;;;;;;;13.49;55.65;100743.72;1641109;85;21110;-78
2021/05/31 00:46:53;;;;;;;9.28;4.10;;;;;;;13.46;55.83;100748.02;1625428;86;20220;-79
2021/05/31 00:49:25;;;;;;;7.75;3.70;;;;;;;13.44;55.87;100739.40;1659045;83;21079;-78
2021/05/31 00:51:56;;;;;;;8.55;4.20;;;;;;;13.25;56.56;100739.95;1623276;86;21022;-79
2021/05/31 00:54:22;;;;;;;7.35;4.08;;;;;;;13.30;56.38;100735.50;1641270;85;21087;-80
2021/05/31 00:56:53;;;;;;;6.43;3.43;;;;;;;13.29;56.46;100735.97;1637359;85;21039;-77
2021/05/31 00:59:19;;;;;;;9.88;4.17;;;;;;;13.39;56.29;100733.72;1640440;85;21077;-78
2021/05/31 01:01:48;;;;;;;9.70;4.15;;;;;;;13.34;56.38;100730.73;1642952;86;21049;-86
2021/05/31 01:04:18;;;;;;;6.80;3.65;;;;;;;13.25;56.58;100733.33;1634064;86;21129;-81
2021/05/31 01:06:51;;;;;;;7.35;3.75;;;;;;;13.15;56.90;100726.48;1640478;85;21094;-79
2021/05/31 01:09:28;;;;;;;10.38;3.20;;;;;;;13.09;57.26;100733.23;1635163;86;21683;-78
2021/05/31 01:12:19;;;;;;;9.05;3.85;;;;;;;13.08;57.29;100737.72;1643758;85;21065;-78
2021/05/31 01:15:17;;;;;;;6.67;3.80;;;;;;;13.06;57.41;100734.88;1648751;85;21097;-78
2021/05/31 01:18:06;;;;;;;7.58;3.80;;;;;;;13.06;57.50;100731.72;1646080;86;21773;-80
2021/05/31 01:20:57;;;;;;;6.72;3.37;;;;;;;13.17;57.07;100732.45;1644516;85;21070;-78
2021/05/31 01:23:26;;;;;;;6.00;3.30;;;;;;;13.18;56.97;100728.31;1631694;85;21125;-78
2021/05/31 01:26:08;;;;;;;7.83;3.30;;;;;;;13.19;57.13;100728.66;1649234;85;21078;-78
2021/05/31 01:29:03;;;;;;;8.73;3.45;;;;;;;13.19;57.20;100728.66;1649407;85;21281;-84
2021/05/31 01:31:52;;;;;;;6.70;3.08;;;;;;;13.11;57.07;100726.80;1632900;85;21042;-79
2021/05/31 01:34:31;;;;;;;6.95;3.22;;;;;;;13.15;56.85;100729.95;1639287;85;21126;-79
2021/05/31 01:37:05;;;;;;;6.60;3.35;;;;;;;13.05;57.26;100731.88;1638972;86;21114;-79
2021/05/31 01:39:32;;;;;;;7.78;3.37;;;;;;;12.98;57.38;100725.56;1640660;86;21083;-84
2021/05/31 01:42:00;;;;;;;7.53;3.70;;;;;;;12.98;57.53;100728.22;1620291;86;21167;-84
2021/05/31 01:44:27;;;;;;;;;;;;;;;12.85;57.85;100736.09;1641829;85;21113;-78
2021/05/31 01:46:53;;;;;;;7.30;3.35;;;;;;;12.87;57.90;100731.46;1637389;86;21107;-78
2021/05/31 01:49:19;;;;;;;10.38;3.47;;;;;;;12.75;58.15;100731.39;1669994;83;20915;-79
2021/05/31 01:51:48;;;;;;;9.23;3.30;;;;;;;12.64;58.49;100730.33;1641759;85;21090;-82
2021/05/31 01:54:20;;;;;;;8.48;3.50;;;;;;;12.70;58.38;100727.88;1637697;86;21215;-77
2021/05/31 01:56:48;;;;;;;7.22;3.17;;;;;;;12.66;58.48;100733.64;1617958;85;21042;-83
2021/05/31 01:59:18;;;;;;;8.28;3.40;;;;;;;12.75;58.08;100734.03;1641556;86;21018;-78
2021/05/31 02:01:52;;;;;;;6.15;3.42;;;;;;;12.74;58.18;100733.72;1643850;86;21203;-79
2021/05/31 02:04:21;;;;;;;8.48;3.42;;;;;;;12.63;58.55;100733.95;1618392;86;21081;-78
2021/05/31 02:06:49;;;;;;;7.62;3.37;;;;;;;12.68;58.37;100739.14;1636301;86;21133;-82
2021/05/31 02:09:20;;;;;;;9.30;3.45;;;;;;;12.69;58.32;100732.01;1638718;86;21845;-79
2021/05/31 02:12:12;;;;;;;5.72;2.90;;;;;;;12.66;58.42;100733.64;1640701;86;21015;-82
2021/05/31 02:15:11;;;;;;;6.25;2.95;;;;;;;12.61;58.59;100727.98;1667363;84;21186;-79
2021/05/31 02:18:23;;;;;;;8.00;3.20;;;;;;;12.66;58.21;100732.31;1641626;86;21711;-80
2021/05/31 02:20:52;;;;;;;6.00;3.33;;;;;;;12.57;58.36;100728.30;1637531;86;21047;-79
2021/05/31 02:23:17;;;;;;;8.55;3.35;;;;;;;12.47;58.87;100722.25;1638741;86;22334;-80
2021/05/31 02:25:43;;;;;;;7.40;3.40;;;;;;;12.48;58.60;100725.25;1641769;86;21104;-83
2021/05/31 02:28:12;;;;;;;7.08;3.20;;;;;;;12.54;58.37;100730.44;1644006;86;21289;-79
2021/05/31 02:30:40;;;;;;;5.30;2.98;;;;;;;12.43;58.79;100729.34;1655715;84;21103;-77
2021/05/31 02:33:09;;;;;;;8.80;3.20;;;;;;;12.44;58.65;100735.80;1613999;86;21127;-78
2021/05/31 02:35:39;;;;;;;6.95;3.05;;;;;;;12.46;58.61;100735.18;1617412;86;21106;-78
2021/05/31 02:38:06;;;;;;;8.05;3.22;;;;;;;12.37;58.87;100732.95;1661803;84;21138;-79
2021/05/31 02:40:35;;;;;;;6.45;3.02;;;;;;;12.33;58.89;100732.08;1647104;86;21078;-84
2021/05/31 02:43:06;;;;;;;6.12;3.20;;;;;;;12.31;59.00;100734.88;1619181;86;21111;-78
2021/05/31 02:45:35;;;;;;;8.80;3.20;;;;;;;12.26;59.28;100730.55;1641823;86;21025;-78
2021/05/31 02:48:04;;;;;;;5.22;3.15;;;;;;;12.32;58.93;100726.44;1637335;86;21106;-78
2021/05/31 02:50:32;;;;;;;5.25;2.90;;;;;;;12.23;59.14;100730.85;1645119;85;20995;-78
2021/05/31 02:53:00;;;;;;;4.87;2.92;;;;;;;12.31;58.90;100733.56;1640873;85;21260;-78
2021/05/31 02:55:28;;;;;;;6.37;3.10;;;;;;;12.24;59.32;100736.97;1633290;86;21120;-78
2021/05/31 02:57:54;;;;;;;6.67;2.98;;;;;;;12.23;59.14;100741.91;1624134;86;21092;-83
2021/05/31 03:00:25;;;;;;;6.42;3.10;;;;;;;12.23;59.47;100745.89;1623561;86;21090;-77
2021/05/31 03:02:52;;;;;;;8.33;3.42;;;;;;;12.14;59.76;100743.17;1635122;86;21098;-78
2021/05/31 03:05:25;;;;;;;7.15;3.10;;;;;;;12.25;59.65;100739.97;1637527;86;25728;-78
2021/05/31 03:07:53;;;;;;;6.60;2.92;;;;;;;12.36;59.35;100743.70;1632890;85;21758;-79
2021/05/31 03:10:19;;;;;;;;;;;;;;;12.43;59.05;100735.48;1636550;84;21070;-79
2021/05/31 03:12:48;;;;;;;6.97;3.40;;;;;;;12.47;59.00;100740.80;1636845;86;20734;-81
2021/05/31 03:15:17;;;;;;;6.92;3.02;;;;;;;12.57;58.48;100740.22;1635045;86;21118;-81
2021/05/31 03:17:47;;;;;;;6.25;3.40;;;;;;;12.49;58.74;100740.17;1617775;86;21059;-78
2021/05/31 03:20:15;;;;;;;7.72;3.30;;;;;;;12.45;58.91;100748.08;1666466;83;21280;-78
2021/05/31 03:22:44;;;;;;;5.12;3.08;;;;;;;12.45;58.85;100736.16;1634564;86;21026;-78
2021/05/31 03:25:13;;;;;;;5.72;3.15;;;;;;;12.53;58.54;100736.20;1637330;86;21086;-78
2021/05/31 03:27:40;;;;;;;7.42;2.95;;;;;;;12.42;58.96;100739.11;1635637;86;21019;-79
2021/05/31 03:30:09;;;;;;;6.15;2.95;;;;;;;12.50;58.64;100731.22;1640240;86;21572;-78
2021/05/31 03:32:37;;;;;;;7.70;3.15;;;;;;;12.53;58.78;100730.91;1633965;85;21235;-78
2021/05/31 03:35:05;;;;;;;8.88;3.33;;;;;;;12.50;58.76;100736.52;1638808;86;22178;-79
2021/05/31 03:37:35;;;;;;;7.20;3.37;;;;;;;12.49;58.97;100737.52;1639912;86;21167;-79
2021/05/31 03:40:01;;;;;;;8.03;3.10;;;;;;;12.55;58.87;100731.61;1641996;84;21099;-78
2021/05/31 03:42:29;;;;;;;8.45;3.05;;;;;;;12.56;58.69;100738.55;1646331;86;21086;-78
2021/05/31 03:44:57;;;;;;;8.80;3.50;;;;;;;12.59;58.67;100735.27;1638523;84;21169;-79
2021/05/31 03:47:24;;;;;;;6.20;3.22;;;;;;;12.46;59.15;100740.48;1615441;86;22075;-79
2021/05/31 03:49:51;;;;;;;8.10;3.05;;;;;;;12.53;58.85;100738.86;1640886;86;21173;-83
2021/05/31 03:52:17;;;;;;;6.55;2.90;;;;;;;12.47;58.97;100739.47;1635327;85;21148;-78
2021/05/31 03:54:43;;;;;;;5.78;2.90;;;;;;;12.54;58.83;100744.50;1637824;86;21031;-78
2021/05/31 03:57:13;;;;;;;5.62;2.90;;;;;;;12.51;58.80;100740.02;1623429;86;21035;-78
2021/05/31 03:59:39;;;;;;;7.20;3.22;;;;;;;12.61;58.76;100743.89;1615231;87;21704;-78
2021/05/31 04:02:09;;;;;;;7.58;2.90;;;;;;;12.72;58.50;100742.30;1602838;88;21123;-78
2021/05/31 04:04:41;;;;;;;6.22;3.42;;;;;;;12.80;58.02;100739.69;1619773;87;21600;-78
2021/05/31 04:12:37;;;;;;;7.50;3.08;;;;;;;12.99;57.46;100748.42;1617432;87;21602;-79
2021/05/31 04:15:07;;;;;;;8.73;3.40;;;;;;;13.07;57.39;100741.35;1624694;87;21213;-79
2021/05/31 04:17:33;;;;;;;6.15;3.35;;;;;;;13.13;57.23;100742.55;1605154;88;21664;-79
2021/05/31 04:20:00;;;;;;;9.63;3.00;;;;;;;13.20;56.73;100745.39;1622443;87;20975;-82
2021/05/31 04:22:26;;;;;;;;;;;;;;;13.32;56.20;100740.14;1623718;86;21201;-80
2021/05/31 04:24:53;;;;;;;9.10;3.22;;;;;;;13.40;55.80;100746.01;1618230;87;22225;-79
2021/05/31 04:27:19;;;;;;;;;;;;;;;13.40;55.90;100746.83;1620482;87;21027;-80
2021/05/31 04:29:48;;;;;;;8.53;3.15;;;;;;;13.32;56.19;100744.63;1619158;87;20195;-79
2021/05/31 04:32:15;;;;;;;8.48;3.15;;;;;;;13.32;56.01;100747.28;1619202;87;21139;-82
2021/05/31 04:34:41;;;;;;;5.92;2.80;;;;;;;13.42;55.63;100749.32;1618029;87;21189;-78
2021/05/31 04:37:09;;;;;;;6.62;3.05;;;;;;;13.31;55.92;100749.08;1618801;88;21348;-78
2021/05/31 04:39:39;;;;;;;4.97;2.95;;;;;;;13.28;56.03;100752.05;1618781;87;21222;-78
2021/05/31 04:42:06;;;;;;;9.93;3.30;;;;;;;13.24;56.32;100752.88;1603628;87;21127;-85
2021/05/31 04:44:35;;;;;;;6.95;3.22;;;;;;;13.23;56.59;100751.20;1624498;86;21103;-78
2021/05/31 04:47:05;;;;;;;7.03;3.10;;;;;;;13.29;56.23;100745.77;1647659;85;21123;-76
2021/05/31 04:49:32;;;;;;;7.33;2.98;;;;;;;13.24;56.23;100746.24;1621188;86;21113;-80
2021/05/31 04:51:58;;;;;;;8.03;3.00;;;;;;;13.25;56.57;100750.56;1616906;87;21699;-78
2021/05/31 04:54:25;;;;;;;8.70;3.25;;;;;;;13.38;56.28;100744.02;1617714;88;21113;-81
2021/05/31 04:56:51;;;;;;;7.42;3.15;;;;;;;13.35;56.61;100743.02;1622491;86;21155;-78
2021/05/31 04:59:19;;;;;;;9.48;3.15;;;;;;;13.42;56.05;100745.34;1636963;86;20955;-79
2021/05/31 05:01:45;;;;;;;6.60;3.08;;;;;;;13.51;56.08;100747.03;1638335;86;22661;-80
2021/05/31 05:04:10;;;;;;;8.63;3.30;;;;;;;13.47;55.88;100739.08;1638151;86;20946;-78
2021/05/31 05:06:36;;;;;;;9.90;3.25;;;;;;;13.49;55.96;100745.05;1640513;85;21035;-80
2021/05/31 05:09:05;;;;;;;14.13;3.40;;;;;;;13.64;55.59;100742.59;1643946;86;21133;-85
2021/05/31 05:11:34;;;;;;;12.20;3.50;;;;;;;13.70;55.81;100743.77;1670571;83;21178;-78
2021/05/31 05:14:01;;;;;;;7.33;3.40;;;;;;;13.73;56.03;100744.78;1636573;85;21118;-82
2021/05/31 05:16:27;;;;;;;9.03;3.02;;;;;;;13.85;55.96;100748.79;1621581;86;21145;-80
2021/05/31 05:18:59;;;;;;;7.20;3.25;;;;;;;13.85;56.13;100747.97;1637865;86;21301;-85
2021/05/31 05:21:24;;;;;;;9.50;3.27;;;;;;;13.98;55.79;100753.14;1634047;86;21051;-82
2021/05/31 05:23:51;;;;;;;;;;;;;;;14.06;55.49;100751.00;1635632;86;21143;-83
2021/05/31 05:26:25;;;;;;;7.20;2.87;;;;;;;14.11;55.43;100753.16;1618809;86;21153;-80
2021/05/31 05:28:55;;;;;;;7.55;3.47;;;;;;;14.14;55.72;100756.81;1632181;86;21047;-80
2021/05/31 05:31:20;;;;;;;9.70;3.02;;;;;;;14.17;55.69;100753.33;1597356;86;21110;-79
2021/05/31 05:33:47;;;;;;;9.50;3.27;;;;;;;14.21;55.67;100753.81;1633515;86;20976;-80
2021/05/31 05:39:13;;;;;;;7.45;2.83;;;;;;;14.32;55.47;100754.80;1634210;86;21047;-77
2021/05/31 05:41:32;;;;;;;11.63;3.30;;;;;;;14.38;55.24;100752.50;1635000;84;21025;-79
2021/05/31 05:46:44;;;;;;;8.85;2.90;;;;;;;14.53;54.29;100746.85;1634905;84;21103;-80
2021/05/31 05:49:07;;;;;;;8.70;2.72;;;;;;;14.49;54.14;100752.16;1631589;86;22316;-79
2021/05/31 05:51:33;;;;;;;6.83;2.95;;;;;;;14.52;54.15;100755.81;1632171;86;22188;-77
2021/05/31 05:53:59;;;;;;;11.55;3.00;;;;;;;14.57;53.96;100754.80;1663702;83;20943;-77
2021/05/31 05:56:27;;;;;;;7.07;2.77;;;;;;;14.66;53.81;100756.48;1643305;85;21063;-81
2021/05/31 05:58:53;;;;;;;;;;;;;;;14.81;53.33;100755.83;1640921;85;21094;-77
2021/05/31 06:01:22;;;;;;;5.33;2.70;;;;;;;14.67;53.04;100752.84;1636365;86;20271;-79
2021/05/31 06:03:51;;;;;;;7.80;2.52;;;;;;;14.81;53.43;100753.16;1639786;85;21150;-77
2021/05/31 06:06:16;;;;;;;5.45;2.37;;;;;;;14.81;53.60;100758.48;1640724;85;21006;-77
2021/05/31 06:08:42;;;;;;;7.92;2.98;;;;;;;15.04;53.55;100753.28;1644363;86;21131;-81
2021/05/31 06:11:12;;;;;;;8.15;3.15;;;;;;;14.99;54.03;100749.80;1640751;86;21138;-77
2021/05/31 06:13:42;;;;;;;8.53;2.60;;;;;;;15.10;53.84;100751.23;1634915;86;21158;-79
2021/05/31 06:16:10;;;;;;;5.72;2.58;;;;;;;15.15;54.01;100752.05;1624004;86;21126;-77
2021/05/31 06:18:36;;;;;;;8.95;3.20;;;;;;;15.27;53.95;100756.00;1617721;86;21019;-87
2021/05/31 06:21:01;;;;;;;8.98;2.80;;;;;;;15.24;53.55;100753.69;1640355;85;21147;-80
2021/05/31 06:23:27;;;;;;;7.20;2.70;;;;;;;15.41;53.14;100755.31;1641804;86;20943;-79
2021/05/31 06:25:56;;;;;;;4.70;2.33;;;;;;;15.57;52.47;100750.91;1636260;86;20938;-77
2021/05/31 06:28:22;;;;;;;5.92;2.22;;;;;;;15.60;52.16;100749.23;1638498;85;21242;-82
2021/05/31 06:30:49;;;;;;;5.22;2.40;;;;;;;15.69;51.93;100748.19;1635293;86;20983;-77
2021/05/31 06:33:16;;;;;;;7.97;2.40;;;;;;;15.77;51.93;100744.17;1634816;85;21395;-80
2021/05/31 06:35:42;;;;;;;;;;;;;;;15.79;51.00;100751.47;1640015;85;21842;-78
2021/05/31 06:38:10;;;;;;;3.72;1.92;;;;;;;15.88;50.26;100747.41;1636526;85;20165;-78
2021/05/31 06:40:36;;;;;;;5.22;2.20;;;;;;;16.00;50.42;100745.19;1644008;85;21276;-80
2021/05/31 06:43:02;;;;;;;6.90;2.20;;;;;;;16.09;49.82;100750.27;1639017;86;20936;-80
2021/05/31 06:45:35;;;;;;;6.62;2.00;;;;;;;16.20;49.01;100751.69;1638604;85;21034;-80
2021/05/31 06:48:04;;;;;;;4.12;2.15;;;;;;;16.31;47.39;100751.77;1638210;86;21205;-77
2021/05/31 06:50:32;;;;;;;4.72;2.10;;;;;;;16.60;46.89;100747.54;1643520;85;21078;-81
2021/05/31 06:53:00;;;;;;;5.70;2.00;;;;;;;16.76;46.00;100748.70;1643832;86;21168;-80
2021/05/31 06:55:26;;;;;;;3.70;2.02;;;;;;;16.82;45.63;100745.30;1625362;86;21014;-81
2021/05/31 06:57:54;;;;;;;7.28;2.10;;;;;;;16.99;44.83;100753.17;1623672;86;21122;-78
2021/05/31 07:00:25;;;;;;;4.42;2.00;;;;;;;17.15;44.33;100749.00;1627122;85;21651;-85
2021/05/31 07:02:51;;;;;;;4.85;1.70;;;;;;;17.16;44.71;100753.31;1629407;85;21131;-79
2021/05/31 07:05:17;;;;;;;7.35;1.80;;;;;;;17.16;43.87;100746.64;1624672;85;21087;-76
2021/05/31 07:07:44;;;;;;;4.00;1.92;;;;;;;17.09;43.91;100744.41;1631797;86;21098;-77
2021/05/31 07:10:12;;;;;;;8.23;1.85;;;;;;;17.12;43.42;100740.03;1628957;85;21055;-78
2021/05/31 07:12:38;;;;;;;4.03;1.77;;;;;;;17.10;43.52;100744.70;1620637;86;22216;-79
2021/05/31 07:15:07;;;;;;;4.40;1.80;;;;;;;17.05;43.14;100739.10;1628796;86;21110;-76
2021/05/31 07:17:34;;;;;;;3.10;1.65;;;;;;;17.07;43.93;100741.07;1631415;86;21309;-78
2021/05/31 07:20:00;;;;;;;2.45;1.60;;;;;;;17.11;43.47;100740.22;1631888;86;21015;-78
2021/05/31 07:22:26;;;;;;;3.75;1.67;;;;;;;17.06;43.33;100743.44;1635216;85;21014;-81
2021/05/31 07:24:52;;;;;;;3.95;1.67;;;;;;;17.09;43.08;100736.88;1631470;85;21066;-76
2021/05/31 07:27:20;;;;;;;4.03;1.67;;;;;;;17.13;42.20;100737.66;1631679;85;21730;-85
2021/05/31 07:29:48;;;;;;;3.12;1.50;;;;;;;17.20;41.45;100735.92;1622084;85;21249;-80
2021/05/31 07:32:15;;;;;;;1.80;1.30;;;;;;;17.20;40.37;100733.25;1631661;85;21031;-80
2021/05/31 07:34:45;;;;;;;4.60;1.62;;;;;;;17.27;40.12;100736.52;1621334;86;21115;-75
2021/05/31 07:37:13;;;;;;;3.55;1.57;;;;;;;17.12;39.68;100729.36;1631678;85;21130;-79
2021/05/31 07:39:38;;;;;;;8.05;2.10;;;;;;;17.18;39.22;100729.95;1624570;85;21103;-79
2021/05/31 07:42:08;;;;;;;2.95;1.45;;;;;;;17.19;39.60;100724.91;1633623;86;21897;-84
2021/05/31 07:44:37;;;;;;;2.90;1.32;;;;;;;17.31;39.82;100727.10;1620026;85;21113;-77
2021/05/31 07:47:03;;;;;;;3.33;1.30;;;;;;;17.46;39.53;100722.56;1625781;86;21083;-77
2021/05/31 07:49:32;;;;;;;3.25;1.40;;;;;;;17.49;37.90;100720.86;1634426;85;21078;-77
2021/05/31 07:52:07;;;;;;;5.65;1.42;;;;;;;17.58;37.20;100723.73;1624764;86;21131;-81
2021/05/31 07:54:26;;;;;;;2.52;1.37;;;;;;;17.76;37.21;100718.50;1631405;86;21542;-77
2021/05/31 07:56:52;;;;;;;2.87;1.27;;;;;;;17.86;37.82;100720.34;1637528;86;21438;-77
2021/05/31 07:59:17;;;;;;;3.35;1.72;;;;;;;17.94;36.86;100716.75;1640824;85;21050;-84
2021/05/31 08:01:45;;;;;;;6.28;1.40;;;;;;;17.90;36.03;100716.83;1648400;85;21787;-78
2021/05/31 08:04:11;;;;;;;4.65;1.45;;;;;;;18.02;35.88;100716.64;1622014;86;21098;-76
2021/05/31 08:06:39;;;;;;;3.90;1.50;;;;;;;18.06;36.34;100714.41;1637560;85;21145;-79
2021/05/31 08:09:08;;;;;;;6.55;1.42;;;;;;;18.24;36.60;100716.59;1642267;86;21050;-79
2021/05/31 08:11:36;;;;;;;3.08;1.17;;;;;;;18.28;36.11;100717.36;1643031;85;21352;-81
2021/05/31 08:14:05;;;;;;;3.40;1.20;;;;;;;18.29;35.21;100720.36;1646696;85;21170;-77
2021/05/31 08:16:32;;;;;;;3.05;1.20;;;;;;;18.17;34.93;100710.39;1646557;85;21134;-76
2021/05/31 08:18:58;;;;;;;4.42;1.57;;;;;;;18.39;35.26;100714.67;1642013;85;21924;-77
2021/05/31 08:21:24;;;;;;;4.12;1.50;;;;;;;18.46;34.96;100725.44;1640345;85;21752;-84
2021/05/31 08:23:53;;;;;;;6.17;1.30;;;;;;;18.46;34.91;100712.06;1617957;86;21698;-78
2021/05/31 08:26:20;;;;;;;3.62;1.17;;;;;;;18.45;35.55;100707.73;1646830;85;21576;-83
2021/05/31 08:28:51;;;;;;;5.25;1.40;;;;;;;18.43;35.74;100708.45;1639410;86;21094;-77
2021/05/31 08:31:17;;;;;;;4.08;1.50;;;;;;;18.54;35.38;100709.77;1646612;85;21170;-76
2021/05/31 08:33:48;;;;;;;3.70;1.70;;;;;;;18.72;35.07;100713.26;1624236;85;21030;-78
2021/05/31 08:36:13;;;;;;;3.70;1.42;;;;;;;18.74;33.51;100700.53;1642658;86;21042;-78
2021/05/31 08:38:42;;;;;;;7.53;1.22;;;;;;;18.84;33.68;100702.32;1648261;85;20895;-77
2021/05/31 08:41:08;;;;;;;2.08;1.10;;;;;;;18.94;33.14;100709.53;1622602;85;21066;-79
2021/05/31 08:43:34;;;;;;;4.12;1.45;;;;;;;18.96;33.17;100703.45;1644506;85;21268;-78
2021/05/31 08:46:01;;;;;;;5.12;1.20;;;;;;;18.97;32.98;100707.80;1649786;85;21011;-77
2021/05/31 08:48:28;;;;;;;2.85;1.35;;;;;;;19.01;32.46;100706.88;1645352;86;21651;-77
2021/05/31 08:50:56;;;;;;;2.40;1.30;;;;;;;19.00;32.57;100711.41;1620526;86;21651;-81
2021/05/31 08:53:22;;;;;;;3.42;1.25;;;;;;;19.08;32.28;100717.11;1640828;85;21750;-76
2021/05/31 08:55:50;;;;;;;3.85;1.35;;;;;;;19.21;33.06;100710.98;1643658;85;21645;-78
2021/05/31 08:58:15;;;;;;;11.90;1.40;;;;;;;19.19;33.30;100709.84;1623093;86;21059;-79
2021/05/31 09:00:48;;;;;;;6.87;1.70;;;;;;;19.09;33.37;100700.53;1644745;85;21130;-79
2021/05/31 09:03:13;;;;;;;2.95;1.50;;;;;;;18.96;33.66;100705.31;1641241;86;21140;-79
2021/05/31 09:05:46;;;;;;;2.33;1.20;;;;;;;18.98;33.53;100705.93;1619415;86;20908;-77
2021/05/31 09:08:18;;;;;;;2.80;1.25;;;;;;;19.00;32.10;100707.40;1638469;86;21291;-80
2021/05/31 09:10:57;;;;;;;3.47;1.30;;;;;;;19.18;32.42;100698.81;1639980;85;21039;-77
2021/05/31 09:13:40;;;;;;;3.60;1.30;;;;;;;19.06;32.87;100698.25;1637820;85;21644;-77
2021/05/31 09:16:10;;;;;;;2.85;1.37;;;;;;;19.08;32.79;100696.19;1641669;86;21022;-80
2021/05/31 09:18:38;;;;;;;2.70;1.22;;;;;;;19.04;32.80;100697.11;1637488;86;21125;-79
2021/05/31 09:21:34;;;;;;;3.98;1.40;;;;;;;19.08;32.83;100703.73;1637317;86;21354;-79
2021/05/31 09:24:08;;;;;;;2.57;1.17;;;;;;;19.03;32.28;100704.00;1643707;85;21193;-83
2021/05/31 09:26:52;;;;;;;5.33;1.50;;;;;;;18.90;32.34;100696.22;1640260;84;21030;-76
2021/05/31 09:29:22;;;;;;;2.60;1.30;;;;;;;18.87;32.51;100695.27;1625508;86;38848;-76
2021/05/31 09:32:06;;;;;;;5.55;1.47;;;;;;;18.97;32.48;100701.10;1644225;84;21115;-83
2021/05/31 09:34:32;;;;;;;7.08;1.37;;;;;;;18.92;32.63;100695.49;1618217;86;22216;-76
2021/05/31 09:37:00;;;;;;;8.63;1.50;;;;;;;18.79;32.27;100692.73;1640681;86;21043;-78
2021/05/31 09:39:35;;;;;;;2.27;1.20;;;;;;;18.90;32.40;100692.72;1637625;85;21074;-80
2021/05/31 09:42:14;;;;;;;5.15;1.30;;;;;;;18.87;32.53;100696.61;1655861;84;21767;-76
2021/05/31 09:44:41;;;;;;;7.78;1.55;;;;;;;18.96;32.52;100692.75;1641066;86;21132;-79
2021/05/31 09:47:07;;;;;;;2.50;1.30;;;;;;;18.97;32.80;100687.72;1638589;84;21151;-83
2021/05/31 09:49:35;;;;;;;4.15;1.32;;;;;;;18.82;33.26;100693.16;1642284;84;21098;-79
2021/05/31 09:52:10;;;;;;;4.75;1.30;;;;;;;18.72;33.46;100689.18;1640690;84;21023;-78
2021/05/31 09:54:44;;;;;;;2.30;1.32;;;;;;;18.79;33.17;100683.37;1644085;86;21118;-78
2021/05/31 09:57:27;;;;;;;2.33;1.30;;;;;;;18.93;32.74;100680.28;1635983;86;21163;-80
2021/05/31 10:00:15;;;;;;;3.90;1.32;;;;;;;19.08;32.71;100680.13;1635597;86;21066;-77
2021/05/31 10:05:34;;;;;;;6.03;1.37;;;;;;;19.34;31.89;100678.92;1639982;86;21878;-80
2021/05/31 10:08:04;;;;;;;7.42;1.45;;;;;;;19.37;31.87;100677.17;1635908;86;22524;-80
2021/05/31 10:10:26;;;;;;;5.80;1.40;;;;;;;19.24;30.49;100683.81;1667637;83;21604;-81
2021/05/31 10:12:53;;;;;;;4.20;1.40;;;;;;;19.16;31.27;100679.98;1643453;85;21125;-79
2021/05/31 10:15:22;;;;;;;4.47;1.50;;;;;;;19.39;31.14;100680.99;1645047;86;21066;-82
2021/05/31 10:17:48;;;;;;;6.60;1.40;;;;;;;19.50;31.61;100688.95;1639347;86;21012;-79
2021/05/31 10:20:14;;;;;;;6.03;1.52;;;;;;;19.59;31.34;100684.22;1631358;86;20947;-79
2021/05/31 10:22:40;;;;;;;2.83;1.12;;;;;;;19.72;31.56;100682.40;1632948;86;21600;-79
2021/05/31 10:25:10;;;;;;;3.55;1.30;;;;;;;19.80;31.25;100676.05;1640824;86;22022;-77
2021/05/31 10:27:36;;;;;;;3.80;1.35;;;;;;;19.80;30.60;100671.22;1636171;86;21052;-78
2021/05/31 10:30:05;;;;;;;4.72;1.22;;;;;;;19.76;30.87;100677.97;1635971;84;20938;-79
2021/05/31 10:32:31;;;;;;;7.15;1.20;;;;;;;19.65;30.75;100677.53;1639464;86;21135;-80
2021/05/31 10:34:57;;;;;;;5.62;1.30;;;;;;;19.56;30.79;100674.76;1634213;85;20932;-78
2021/05/31 10:37:29;;;;;;;1.70;1.10;;;;;;;19.59;30.99;100664.13;1650603;85;21547;-77
2021/05/31 10:40:10;;;;;;;1.77;1.20;;;;;;;19.68;31.51;100665.06;1638061;86;21031;-83
2021/05/31 10:42:46;;;;;;;2.50;1.20;;;;;;;19.79;31.84;100668.22;1623562;86;21019;-80
2021/05/31 10:45:29;;;;;;;4.95;1.60;;;;;;;19.88;31.21;100663.78;1637837;84;21123;-76
2021/05/31 10:48:15;;;;;;;2.02;1.20;;;;;;;19.91;30.78;100651.84;1638481;84;21231;-80
2021/05/31 10:51:00;;;;;;;3.95;1.40;;;;;;;20.00;30.54;100649.27;1639046;86;21715;-77
2021/05/31 10:53:31;;;;;;;4.75;1.40;;;;;;;19.91;31.29;100658.54;1640324;86;21023;-77
2021/05/31 10:56:26;;;;;;;2.70;1.20;;;;;;;19.94;30.99;100660.81;1643020;84;21118;-79
2021/05/31 10:58:56;;;;;;;6.15;1.30;;;;;;;19.87;30.76;100650.59;1632281;86;21126;-76
2021/05/31 11:01:37;;;;;;;3.47;1.25;;;;;;;19.95;30.68;100650.41;1621334;86;21138;-76
2021/05/31 11:04:16;;;;;;;4.92;1.47;;;;;;;20.02;30.43;100647.19;1647819;85;21110;-77
2021/05/31 11:06:44;;;;;;;4.35;1.10;;;;;;;20.23;30.00;100646.16;1641576;85;21117;-77
2021/05/31 11:09:16;;;;;;;3.47;1.20;;;;;;;20.27;30.18;100643.87;1640665;85;21410;-79
2021/05/31 11:11:49;;;;;;;2.90;1.35;;;;;;;20.31;30.04;100639.77;1644149;86;21142;-77
2021/05/31 11:14:17;;;;;;;4.28;1.25;;;;;;;20.18;29.60;100639.77;1639230;86;21882;-78
2021/05/31 11:17:14;;;;;;;2.15;1.15;;;;;;;19.98;30.30;100647.81;1645391;85;21148;-78
2021/05/31 11:19:42;;;;;;;2.55;1.35;;;;;;;19.74;29.70;100650.85;1643788;85;21142;-77
2021/05/31 11:22:19;;;;;;;2.17;1.20;;;;;;;19.91;30.33;100641.11;1640384;86;21098;-78
2021/05/31 11:25:02;;;;;;;3.15;1.25;;;;;;;20.04;30.25;100636.27;1642542;86;22331;-79
2021/05/31 11:27:35;;;;;;;4.20;1.20;;;;;;;20.03;29.98;100630.09;1643082;86;21658;-77
2021/05/31 11:30:05;;;;;;;3.98;1.47;;;;;;;20.06;29.50;100632.36;1647523;85;21235;-80
2021/05/31 11:32:32;;;;;;;2.15;1.20;;;;;;;20.23;30.04;100634.63;1635684;86;21440;-76
2021/05/31 11:35:07;;;;;;;4.15;1.30;;;;;;;20.15;28.96;100620.06;1641655;85;21092;-81
2021/05/31 11:37:35;;;;;;;3.05;1.22;;;;;;;20.09;29.48;100627.92;1638779;86;21038;-77
2021/05/31 11:40:03;;;;;;;4.90;1.27;;;;;;;20.08;30.26;100632.96;1646428;85;21050;-78
2021/05/31 11:42:29;;;;;;;5.42;1.60;;;;;;;20.04;30.48;100626.38;1640455;85;21679;-77
2021/05/31 11:44:57;;;;;;;2.55;1.32;;;;;;;20.06;30.01;100629.67;1643371;86;20908;-79
2021/05/31 11:47:28;;;;;;;4.67;1.87;;;;;;;20.14;29.88;100629.16;1637576;85;21006;-81
2021/05/31 11:49:54;;;;;;;4.00;1.42;;;;;;;20.16;29.86;100623.06;1626674;86;21220;-80
2021/05/31 11:52:29;;;;;;;6.15;1.40;;;;;;;20.18;29.89;100621.84;1618715;86;20935;-77